Time;durP1;ratioP1;P1;durP2;ratioP2;P2;SDS_P1;SDS_P2;PMS_P1;PMS_P2;Temp;Humidity;BMP_temperature;BMP_pressure;BME280_temperature;BME280_humidity;BME280_pressure;Samples;Min_cycle;Max_cycle;Signal;HPM_P1;HPM_P2
2022/08/12 00:44:43;;;;;;;2.40;2.30;;;;;;;;;;4996696;28;20232;-60
2022/08/12 00:47:09;;;;;;;1.90;1.80;;;;;;;;;;5001777;28;20228;-58
2022/08/12 00:49:35;;;;;;;1.90;1.80;;;;;;;;;;4987084;28;20257;-59
2022/08/12 00:52:08;;;;;;;2.10;2.00;;;;;;;;;;5008322;28;24988;-59
2022/08/12 00:54:46;;;;;;;1.90;1.80;;;;;;;;;;5004930;28;20343;-58
2022/08/12 00:57:13;;;;;;;1.70;1.70;;;;;;;;;;4999495;28;20239;-60
2022/08/12 00:59:44;;;;;;;2.00;1.90;;;;;;;;;;4998286;28;20294;-58
2022/08/12 01:02:10;;;;;;;2.10;2.00;;;;;;;;;;5001670;28;20228;-58
2022/08/12 01:12:50;;;;;;;1.97;1.87;;;;;;;;;;5011235;28;22019;-58
2022/08/12 01:15:16;;;;;;;2.30;2.20;;;;;;;;;;5012096;28;20208;-59
2022/08/12 01:17:43;;;;;;;2.10;2.00;;;;;;;;;;5009181;28;20212;-59
2022/08/12 01:20:09;;;;;;;2.00;1.90;;;;;;;;;;5007652;28;20264;-57
2022/08/12 01:22:45;;;;;;;2.00;1.90;;;;;;;;;;4992515;28;20236;-59
2022/08/12 01:25:12;;;;;;;2.00;1.90;;;;;;;;;;5015797;28;20231;-58
2022/08/12 01:27:39;;;;;;;2.20;2.10;;;;;;;;;;5005110;28;20649;-57
2022/08/12 01:30:06;;;;;;;2.00;1.90;;;;;;;;;;5004667;28;20342;-58
2022/08/12 01:32:36;;;;;;;2.10;2.00;;;;;;;;;;5007556;28;20251;-58
2022/08/12 01:35:10;;;;;;;2.30;2.20;;;;;;;;;;5015697;28;20298;-58
2022/08/12 01:37:37;;;;;;;2.10;2.00;;;;;;;;;;5010951;28;20267;-58
2022/08/12 01:40:03;;;;;;;2.07;1.97;;;;;;;;;;4996950;28;20258;-58
2022/08/12 01:42:32;;;;;;;2.20;2.10;;;;;;;;;;5008503;28;20224;-58
2022/08/12 01:44:58;;;;;;;2.13;2.03;;;;;;;;;;5022501;28;20224;-58
2022/08/12 01:47:30;;;;;;;1.80;1.70;;;;;;;;;;5004737;28;20232;-58
2022/08/12 01:50:06;;;;;;;1.90;1.80;;;;;;;;;;5012964;28;20787;-58
2022/08/12 01:52:44;;;;;;;1.90;1.80;;;;;;;;;;5004118;28;20243;-58
2022/08/12 01:55:11;;;;;;;2.23;2.13;;;;;;;;;;5010057;28;20247;-58
2022/08/12 01:57:40;;;;;;;2.30;2.20;;;;;;;;;;5014737;28;20252;-58
2022/08/12 02:00:11;;;;;;;1.90;1.80;;;;;;;;;;5017651;28;21222;-58
2022/08/12 02:02:53;;;;;;;2.00;1.90;;;;;;;;;;5016987;28;20227;-58
2022/08/12 02:11:14;;;;;;;2.27;2.17;;;;;;;;;;5013972;28;20259;-58
2022/08/12 02:13:48;;;;;;;1.57;1.57;;;;;;;;;;5014882;28;20908;-59
2022/08/12 02:16:21;;;;;;;1.60;1.60;;;;;;;;;;5007367;28;20256;-58
2022/08/12 02:18:50;;;;;;;1.60;1.60;;;;;;;;;;5011566;28;20258;-58
2022/08/12 02:21:25;;;;;;;1.50;1.50;;;;;;;;;;5010182;28;20216;-58
2022/08/12 02:23:51;;;;;;;1.40;1.40;;;;;;;;;;4998709;28;20629;-58
2022/08/12 02:26:17;;;;;;;1.60;1.60;;;;;;;;;;5001243;28;20229;-58
2022/08/12 02:28:43;;;;;;;1.90;1.80;;;;;;;;;;5010889;28;20259;-58
2022/08/12 02:31:09;;;;;;;1.30;1.30;;;;;;;;;;5020730;28;20228;-58
2022/08/12 02:33:36;;;;;;;1.90;1.80;;;;;;;;;;5000815;28;20297;-58
2022/08/12 02:36:02;;;;;;;1.90;1.80;;;;;;;;;;4996715;28;20784;-58
2022/08/12 02:38:30;;;;;;;1.40;1.40;;;;;;;;;;5019668;28;20244;-58
2022/08/12 02:40:56;;;;;;;2.00;1.90;;;;;;;;;;5019072;28;20227;-58
2022/08/12 02:44:00;;;;;;;1.40;1.40;;;;;;;;;;4998643;28;20224;-57
2022/08/12 02:46:31;;;;;;;1.50;1.50;;;;;;;;;;4908573;28;20256;-58
2022/08/12 02:49:03;;;;;;;0.60;0.60;;;;;;;;;;4927959;28;20232;-57
2022/08/12 02:51:33;;;;;;;1.10;1.10;;;;;;;;;;4978757;28;20247;-57
2022/08/12 02:54:02;;;;;;;1.67;1.63;;;;;;;;;;5010297;28;20215;-58
2022/08/12 02:56:29;;;;;;;1.53;1.53;;;;;;;;;;5018047;28;20217;-57
2022/08/12 02:58:56;;;;;;;1.80;1.70;;;;;;;;;;5018725;28;20243;-58
2022/08/12 03:01:26;;;;;;;1.70;1.70;;;;;;;;;;5009869;28;20650;-58
2022/08/12 03:03:52;;;;;;;1.50;1.50;;;;;;;;;;4986515;28;20225;-58
2022/08/12 03:06:20;;;;;;;1.50;1.50;;;;;;;;;;4994583;28;20846;-57
2022/08/12 03:08:47;;;;;;;1.77;1.70;;;;;;;;;;5010517;28;20236;-58
2022/08/12 03:11:15;;;;;;;2.00;1.90;;;;;;;;;;5020989;28;20239;-58
2022/08/12 03:13:42;;;;;;;1.53;1.53;;;;;;;;;;5022883;28;20226;-58
2022/08/12 03:16:08;;;;;;;1.60;1.60;;;;;;;;;;4995932;28;20218;-58
2022/08/12 03:18:34;;;;;;;1.70;1.70;;;;;;;;;;5011154;28;20586;-59
2022/08/12 03:21:00;;;;;;;2.00;1.90;;;;;;;;;;5020490;28;20234;-57
2022/08/12 03:23:26;;;;;;;2.03;1.93;;;;;;;;;;5019542;28;20228;-58
2022/08/12 03:25:57;;;;;;;1.90;1.80;;;;;;;;;;5020151;28;21236;-57
2022/08/12 03:31:08;;;;;;;2.10;2.00;;;;;;;;;;5013920;28;20243;-57
2022/08/12 03:33:36;;;;;;;1.50;1.50;;;;;;;;;;5026514;28;20999;-58
2022/08/12 03:36:02;;;;;;;1.60;1.60;;;;;;;;;;5016217;28;20235;-57
2022/08/12 03:38:29;;;;;;;1.50;1.50;;;;;;;;;;5024960;28;20363;-58
2022/08/12 04:00:19;;;;;;;1.70;1.70;;;;;;;;;;5022124;28;20239;-57
2022/08/12 04:02:53;;;;;;;1.50;1.50;;;;;;;;;;5021355;28;20692;-58
2022/08/12 04:05:19;;;;;;;1.50;1.50;;;;;;;;;;5016476;28;20228;-58
2022/08/12 04:07:45;;;;;;;1.53;1.53;;;;;;;;;;5012731;28;20238;-58
2022/08/12 04:10:11;;;;;;;1.30;1.30;;;;;;;;;;5013184;28;20224;-58
2022/08/12 04:15:24;;;;;;;1.63;1.63;;;;;;;;;;5003606;28;20262;-59
2022/08/12 04:17:50;;;;;;;1.40;1.40;;;;;;;;;;5003668;28;20236;-58
2022/08/12 04:20:18;;;;;;;1.70;1.70;;;;;;;;;;5004942;28;20241;-58
2022/08/12 04:22:44;;;;;;;1.30;1.30;;;;;;;;;;5003587;28;20654;-58
2022/08/12 04:25:10;;;;;;;1.40;1.40;;;;;;;;;;5011994;28;21621;-58
2022/08/12 04:27:36;;;;;;;1.30;1.30;;;;;;;;;;5020311;28;20239;-58
2022/08/12 04:30:02;;;;;;;1.30;1.30;;;;;;;;;;5008417;28;20294;-59
2022/08/12 04:32:28;;;;;;;1.43;1.43;;;;;;;;;;5001987;28;20232;-58
2022/08/12 04:34:55;;;;;;;1.33;1.33;;;;;;;;;;4992105;28;20691;-59
2022/08/12 04:37:22;;;;;;;1.50;1.50;;;;;;;;;;5022685;28;20476;-59
2022/08/12 04:39:48;;;;;;;1.40;1.40;;;;;;;;;;5016421;28;20224;-58
2022/08/12 04:42:14;;;;;;;1.40;1.40;;;;;;;;;;5007943;28;20254;-60
2022/08/12 04:44:41;;;;;;;1.70;1.70;;;;;;;;;;4979950;28;20232;-58
2022/08/12 04:47:09;;;;;;;1.60;1.60;;;;;;;;;;5007778;28;20228;-58
2022/08/12 04:49:35;;;;;;;1.50;1.50;;;;;;;;;;5010231;28;20216;-59
2022/08/12 04:52:02;;;;;;;1.40;1.40;;;;;;;;;;5017860;28;20225;-58
2022/08/12 04:54:28;;;;;;;1.73;1.67;;;;;;;;;;5019833;28;20219;-57
2022/08/12 04:56:54;;;;;;;1.80;1.70;;;;;;;;;;5008571;28;20282;-62
2022/08/12 04:59:20;;;;;;;1.37;1.37;;;;;;;;;;5019318;28;20231;-60
2022/08/12 05:01:52;;;;;;;1.60;1.60;;;;;;;;;;5022132;28;20229;-59
2022/08/12 05:04:19;;;;;;;1.60;1.60;;;;;;;;;;5008016;28;20238;-59
2022/08/12 05:06:45;;;;;;;1.80;1.70;;;;;;;;;;5006892;28;20231;-59
2022/08/12 05:09:11;;;;;;;1.80;1.70;;;;;;;;;;5012580;28;20230;-59
2022/08/12 05:11:37;;;;;;;2.10;2.00;;;;;;;;;;4993513;28;20232;-59
2022/08/12 05:14:03;;;;;;;1.80;1.70;;;;;;;;;;4993890;28;20231;-58
2022/08/12 05:16:29;;;;;;;1.70;1.60;;;;;;;;;;4998823;28;20256;-59
2022/08/12 05:18:55;;;;;;;1.60;1.60;;;;;;;;;;5001864;28;20672;-59
2022/08/12 05:21:21;;;;;;;1.70;1.60;;;;;;;;;;5030466;28;20236;-58
2022/08/12 05:23:47;;;;;;;1.87;1.77;;;;;;;;;;5014327;28;20292;-59
2022/08/12 05:26:13;;;;;;;1.60;1.60;;;;;;;;;;5017766;28;20228;-60
2022/08/12 05:28:40;;;;;;;1.60;1.60;;;;;;;;;;5022746;28;20247;-59
2022/08/12 05:31:06;;;;;;;1.60;1.60;;;;;;;;;;5005245;28;20279;-59
2022/08/12 05:33:36;;;;;;;1.60;1.60;;;;;;;;;;5010623;28;20264;-59
2022/08/12 05:36:02;;;;;;;1.93;1.83;;;;;;;;;;5023709;28;20227;-58
2022/08/12 05:41:19;;;;;;;1.53;1.53;;;;;;;;;;5007445;28;20317;-58
2022/08/12 05:43:48;;;;;;;1.23;1.23;;;;;;;;;;5017715;28;20283;-60
2022/08/12 05:46:14;;;;;;;1.40;1.40;;;;;;;;;;5024035;28;20575;-60
2022/08/12 05:48:40;;;;;;;1.60;1.60;;;;;;;;;;5026444;28;20215;-60
2022/08/12 05:51:06;;;;;;;1.30;1.30;;;;;;;;;;5022200;28;20740;-59
2022/08/12 05:53:32;;;;;;;1.20;1.20;;;;;;;;;;5015018;28;20221;-60
2022/08/12 05:55:58;;;;;;;1.40;1.40;;;;;;;;;;5026917;28;20227;-59
2022/08/12 05:58:25;;;;;;;1.40;1.40;;;;;;;;;;5024975;28;20216;-60
2022/08/12 06:00:50;;;;;;;1.40;1.40;;;;;;;;;;5027876;28;20207;-59
2022/08/12 06:03:16;;;;;;;1.50;1.50;;;;;;;;;;5028245;28;20228;-61
2022/08/12 06:05:45;;;;;;;1.60;1.50;;;;;;;;;;5018097;28;20643;-60
2022/08/12 06:08:11;;;;;;;1.43;1.43;;;;;;;;;;5014005;28;20681;-60
2022/08/12 06:10:37;;;;;;;1.67;1.67;;;;;;;;;;5013228;28;21568;-59
2022/08/12 06:13:03;;;;;;;1.50;1.50;;;;;;;;;;5016888;28;20300;-60
2022/08/12 06:15:29;;;;;;;1.50;1.50;;;;;;;;;;5021832;28;20222;-59
2022/08/12 06:18:04;;;;;;;1.40;1.40;;;;;;;;;;5023263;28;22877;-58
2022/08/12 06:20:30;;;;;;;1.30;1.30;;;;;;;;;;5018212;28;20277;-60
2022/08/12 06:22:56;;;;;;;1.30;1.30;;;;;;;;;;5014254;28;20237;-60
2022/08/12 06:25:22;;;;;;;1.30;1.30;;;;;;;;;;5020675;28;20243;-59
2022/08/12 06:27:48;;;;;;;1.40;1.40;;;;;;;;;;5006545;28;20228;-59
2022/08/12 06:30:15;;;;;;;1.30;1.30;;;;;;;;;;5017027;28;20568;-60
2022/08/12 06:32:42;;;;;;;1.20;1.20;;;;;;;;;;5014940;28;20720;-59
2022/08/12 06:35:08;;;;;;;1.70;1.70;;;;;;;;;;5007483;28;20228;-58
2022/08/12 06:37:40;;;;;;;1.50;1.50;;;;;;;;;;5021699;28;20208;-59
2022/08/12 06:40:07;;;;;;;1.30;1.30;;;;;;;;;;5016759;28;20869;-60
2022/08/12 06:42:50;;;;;;;1.60;1.60;;;;;;;;;;5003710;28;20654;-59
2022/08/12 06:45:19;;;;;;;1.60;1.60;;;;;;;;;;5009130;28;20217;-60
2022/08/12 06:47:46;;;;;;;1.93;1.83;;;;;;;;;;5002559;28;20311;-58
2022/08/12 06:50:14;;;;;;;1.40;1.40;;;;;;;;;;5015772;28;20235;-59
2022/08/12 06:52:40;;;;;;;1.20;1.20;;;;;;;;;;5019589;28;20242;-58
2022/08/12 06:55:06;;;;;;;1.60;1.60;;;;;;;;;;5011102;28;20706;-60
2022/08/12 06:57:32;;;;;;;1.90;1.80;;;;;;;;;;5009895;28;20315;-60
2022/08/12 06:59:58;;;;;;;2.00;1.90;;;;;;;;;;5018684;28;20224;-59
2022/08/12 07:02:24;;;;;;;1.30;1.30;;;;;;;;;;5011605;28;20762;-59
2022/08/12 07:04:51;;;;;;;1.40;1.40;;;;;;;;;;5019912;28;20320;-59
2022/08/12 07:07:17;;;;;;;1.50;1.50;;;;;;;;;;5020345;28;20700;-60
2022/08/12 07:09:43;;;;;;;1.80;1.70;;;;;;;;;;5030407;28;20354;-61
2022/08/12 07:12:16;;;;;;;1.80;1.70;;;;;;;;;;5026138;28;20233;-59
2022/08/12 07:14:42;;;;;;;1.90;1.80;;;;;;;;;;5020866;28;20215;-60
2022/08/12 07:17:08;;;;;;;2.15;2.05;;;;;;;;;;5024189;28;20254;-59
2022/08/12 07:19:35;;;;;;;2.10;2.00;;;;;;;;;;5019827;28;20228;-59
2022/08/12 07:22:05;;;;;;;2.00;1.90;;;;;;;;;;5016045;28;20227;-59
2022/08/12 07:24:31;;;;;;;2.00;1.90;;;;;;;;;;5008950;28;20313;-59
2022/08/12 07:26:57;;;;;;;1.88;1.77;;;;;;;;;;5019899;28;20224;-60
2022/08/12 07:29:24;;;;;;;1.88;1.77;;;;;;;;;;5012934;28;20700;-59
2022/08/12 07:31:50;;;;;;;1.90;1.80;;;;;;;;;;4999875;28;20241;-59
2022/08/12 07:34:16;;;;;;;1.90;1.80;;;;;;;;;;5021552;28;20224;-59
2022/08/12 07:36:42;;;;;;;1.65;1.60;;;;;;;;;;5015854;28;20212;-59
2022/08/12 07:39:08;;;;;;;1.60;1.60;;;;;;;;;;5022685;28;20247;-61
2022/08/12 07:41:34;;;;;;;1.60;1.60;;;;;;;;;;5018070;28;20647;-60
2022/08/12 07:44:01;;;;;;;1.70;1.70;;;;;;;;;;5021566;28;20232;-60
2022/08/12 07:46:35;;;;;;;1.80;1.70;;;;;;;;;;5005456;28;22114;-59
2022/08/12 07:49:04;;;;;;;1.50;1.50;;;;;;;;;;5007981;28;20260;-59
2022/08/12 07:51:30;;;;;;;1.80;1.70;;;;;;;;;;5019650;28;20239;-60
2022/08/12 07:53:56;;;;;;;1.90;1.80;;;;;;;;;;5011779;28;20224;-60
2022/08/12 07:56:22;;;;;;;1.25;1.25;;;;;;;;;;5024168;28;20213;-60
2022/08/12 07:58:48;;;;;;;1.95;1.85;;;;;;;;;;5019832;28;21043;-59
2022/08/12 08:01:16;;;;;;;2.10;2.00;;;;;;;;;;4996537;28;21346;-60
2022/08/12 08:04:54;;;;;;;2.17;2.08;;;;;;;;;;4980516;28;20765;-60
2022/08/12 08:06:30;;;;;;;2.20;2.10;;;;;;;;;;4983959;28;20231;-59
2022/08/12 08:08:56;;;;;;;2.20;2.10;;;;;;;;;;4996313;28;20612;-59
2022/08/12 08:14:07;;;;;;;2.10;2.00;;;;;;;;;;5000878;28;20259;-59
2022/08/12 08:16:36;;;;;;;2.00;1.90;;;;;;;;;;4998397;28;20229;-60
2022/08/12 08:19:02;;;;;;;2.00;1.90;;;;;;;;;;5016381;28;20293;-60
2022/08/12 08:21:28;;;;;;;1.98;1.88;;;;;;;;;;5010970;28;20217;-61
2022/08/12 08:26:39;;;;;;;1.90;1.80;;;;;;;;;;5015222;28;20293;-65
2022/08/12 08:29:06;;;;;;;1.90;1.80;;;;;;;;;;5025847;28;20192;-60
2022/08/12 08:31:32;;;;;;;1.90;1.80;;;;;;;;;;5015082;28;20950;-60
2022/08/12 08:34:00;;;;;;;1.90;1.80;;;;;;;;;;5006257;28;20336;-59
2022/08/12 08:36:26;;;;;;;1.90;1.80;;;;;;;;;;5014147;28;20223;-59
2022/08/12 08:38:52;;;;;;;1.90;1.80;;;;;;;;;;5024809;28;20351;-60
2022/08/12 08:44:04;;;;;;;1.90;1.80;;;;;;;;;;5004096;28;20241;-60
2022/08/12 08:46:33;;;;;;;1.75;1.70;;;;;;;;;;4991181;28;20285;-59
2022/08/12 08:49:00;;;;;;;1.80;1.70;;;;;;;;;;5005792;28;20224;-59
2022/08/12 08:51:26;;;;;;;1.83;1.73;;;;;;;;;;5004944;28;20311;-60
2022/08/12 08:53:52;;;;;;;1.80;1.70;;;;;;;;;;5004188;28;20604;-60
2022/08/12 08:56:18;;;;;;;1.90;1.80;;;;;;;;;;5018507;28;20217;-59
2022/08/12 08:58:44;;;;;;;1.60;1.60;;;;;;;;;;5011030;28;20228;-61
2022/08/12 09:01:16;;;;;;;1.60;1.60;;;;;;;;;;5013850;28;20286;-61
2022/08/12 09:03:42;;;;;;;1.60;1.60;;;;;;;;;;5014738;28;20257;-62
2022/08/12 09:06:08;;;;;;;1.40;1.40;;;;;;;;;;5010260;28;20300;-61
2022/08/12 09:08:34;;;;;;;1.40;1.40;;;;;;;;;;5012016;28;20635;-60
2022/08/12 09:13:26;;;;;;;1.10;1.10;;;;;;;;;;5026260;28;20297;-60
2022/08/12 09:13:46;;;;;;;1.50;1.50;;;;;;;;;;5015083;28;20321;-61
2022/08/12 09:16:12;;;;;;;1.60;1.60;;;;;;;;;;5019890;28;20701;-60
2022/08/12 09:18:38;;;;;;;2.10;2.00;;;;;;;;;;5019668;28;20216;-61
2022/08/12 09:21:04;;;;;;;1.50;1.50;;;;;;;;;;5020722;28;20199;-60
2022/08/12 09:23:29;;;;;;;1.35;1.35;;;;;;;;;;5020593;28;20219;-60
2022/08/12 09:25:55;;;;;;;1.60;1.60;;;;;;;;;;5019761;28;20564;-60
2022/08/12 09:28:26;;;;;;;1.60;1.60;;;;;;;;;;5016891;28;26531;-60
2022/08/12 09:30:56;;;;;;;1.38;1.38;;;;;;;;;;5018119;28;20574;-60
2022/08/12 09:33:29;;;;;;;1.50;1.50;;;;;;;;;;5015543;28;20239;-61
2022/08/12 09:35:56;;;;;;;1.30;1.30;;;;;;;;;;5015982;28;20277;-61
2022/08/12 09:38:23;;;;;;;1.30;1.30;;;;;;;;;;5014013;28;20267;-61
2022/08/12 09:40:49;;;;;;;1.30;1.30;;;;;;;;;;5014618;28;20684;-63
2022/08/12 09:46:03;;;;;;;1.30;1.30;;;;;;;;;;5025618;28;20291;-59
2022/08/12 09:48:29;;;;;;;1.30;1.30;;;;;;;;;;5016655;28;21138;-58
2022/08/12 09:50:55;;;;;;;1.40;1.40;;;;;;;;;;5003316;28;20608;-59
2022/08/12 09:53:25;;;;;;;1.40;1.40;;;;;;;;;;5011972;28;20220;-58
2022/08/12 09:55:51;;;;;;;1.20;1.20;;;;;;;;;;5009967;28;20463;-58
2022/08/12 09:58:27;;;;;;;1.20;1.20;;;;;;;;;;5029458;28;20247;-59
2022/08/12 10:00:53;;;;;;;1.15;1.15;;;;;;;;;;5014234;28;20531;-58
2022/08/12 10:03:20;;;;;;;1.10;1.10;;;;;;;;;;5015481;28;20224;-61
2022/08/12 10:05:47;;;;;;;1.17;1.17;;;;;;;;;;5014890;28;20251;-61
2022/08/12 10:08:14;;;;;;;1.00;1.00;;;;;;;;;;5014734;28;26238;-60
2022/08/12 10:13:43;;;;;;;1.13;1.13;;;;;;;;;;5007055;28;21130;-61
2022/08/12 10:16:16;;;;;;;1.10;1.10;;;;;;;;;;5008772;28;21836;-61
2022/08/12 10:18:43;;;;;;;1.20;1.20;;;;;;;;;;5015762;28;20683;-61
2022/08/12 10:21:10;;;;;;;1.30;1.30;;;;;;;;;;5016187;28;20223;-61
2022/08/12 10:23:36;;;;;;;1.10;1.10;;;;;;;;;;5015222;28;20231;-63
2022/08/12 10:31:32;;;;;;;1.00;1.00;;;;;;;;;;5029755;28;20247;-62
2022/08/12 10:33:58;;;;;;;1.05;1.05;;;;;;;;;;5029134;28;20284;-62
2022/08/12 10:36:24;;;;;;;1.20;1.20;;;;;;;;;;5028096;28;20235;-62
2022/08/12 10:38:50;;;;;;;1.15;1.15;;;;;;;;;;5027569;28;23712;-66
2022/08/12 10:44:04;;;;;;;1.20;1.20;;;;;;;;;;5002949;28;20235;-61
2022/08/12 10:46:29;;;;;;;1.20;1.20;;;;;;;;;;5014208;28;20231;-65
2022/08/12 10:48:55;;;;;;;1.10;1.10;;;;;;;;;;5003578;28;21052;-61
2022/08/12 10:51:21;;;;;;;1.20;1.20;;;;;;;;;;5006442;28;20743;-66
2022/08/12 10:53:48;;;;;;;1.20;1.20;;;;;;;;;;5002466;28;20224;-65
2022/08/12 10:56:17;;;;;;;1.20;1.20;;;;;;;;;;5008602;28;22126;-67
2022/08/12 10:58:43;;;;;;;1.30;1.30;;;;;;;;;;4992346;28;22064;-67
2022/08/12 11:01:09;;;;;;;1.20;1.20;;;;;;;;;;5005600;28;20305;-68
2022/08/12 11:03:38;;;;;;;1.30;1.30;;;;;;;;;;5004057;28;20232;-66
2022/08/12 11:06:05;;;;;;;1.20;1.20;;;;;;;;;;5007728;28;20232;-67
2022/08/12 11:08:31;;;;;;;1.20;1.20;;;;;;;;;;5011599;28;20646;-66
2022/08/12 11:10:57;;;;;;;1.20;1.20;;;;;;;;;;4997505;28;20232;-67
2022/08/12 11:13:23;;;;;;;1.20;1.20;;;;;;;;;;4997297;28;20309;-66
2022/08/12 11:15:49;;;;;;;1.30;1.30;;;;;;;;;;4992470;28;20224;-67
2022/08/12 11:18:15;;;;;;;1.10;1.10;;;;;;;;;;5005126;28;20262;-67
2022/08/12 11:20:42;;;;;;;1.20;1.20;;;;;;;;;;5011967;28;20216;-68
2022/08/12 11:23:08;;;;;;;1.20;1.20;;;;;;;;;;5005726;28;20250;-68
2022/08/12 11:25:34;;;;;;;1.13;1.13;;;;;;;;;;5007004;28;20371;-65
2022/08/12 11:28:00;;;;;;;1.20;1.20;;;;;;;;;;5013265;28;20298;-66
2022/08/12 11:30:26;;;;;;;1.23;1.23;;;;;;;;;;5013233;28;20248;-66
2022/08/12 11:32:52;;;;;;;1.20;1.20;;;;;;;;;;5016642;28;20303;-66
2022/08/12 11:35:18;;;;;;;1.30;1.30;;;;;;;;;;5017037;28;20632;-66
2022/08/12 11:37:44;;;;;;;1.30;1.30;;;;;;;;;;5022833;28;21480;-66
2022/08/12 11:40:10;;;;;;;1.40;1.40;;;;;;;;;;5010289;28;20594;-66
2022/08/12 11:42:36;;;;;;;1.20;1.20;;;;;;;;;;5004527;28;20212;-66
2022/08/12 11:45:02;;;;;;;1.20;1.20;;;;;;;;;;4995438;28;20217;-65
2022/08/12 11:47:28;;;;;;;1.20;1.20;;;;;;;;;;5000367;28;20285;-65
2022/08/12 11:49:54;;;;;;;1.50;1.50;;;;;;;;;;5006509;28;20221;-66
2022/08/12 11:52:21;;;;;;;1.10;1.10;;;;;;;;;;5023991;28;20229;-65
2022/08/12 11:54:46;;;;;;;1.20;1.20;;;;;;;;;;5009572;28;20693;-65
2022/08/12 11:57:12;;;;;;;1.30;1.30;;;;;;;;;;5017968;28;20250;-65
2022/08/12 11:59:38;;;;;;;1.30;1.30;;;;;;;;;;5011818;28;20222;-65
2022/08/12 12:02:05;;;;;;;1.30;1.30;;;;;;;;;;5017458;28;20219;-61
2022/08/12 12:04:31;;;;;;;1.30;1.30;;;;;;;;;;5013314;28;20228;-61
2022/08/12 12:06:57;;;;;;;1.20;1.20;;;;;;;;;;5013410;28;20594;-66
2022/08/12 12:09:24;;;;;;;1.30;1.30;;;;;;;;;;5017936;28;20343;-65
2022/08/12 12:11:50;;;;;;;1.30;1.30;;;;;;;;;;5020960;28;20228;-66
2022/08/12 12:14:16;;;;;;;1.35;1.35;;;;;;;;;;5012449;28;20208;-66
2022/08/12 12:16:41;;;;;;;1.30;1.30;;;;;;;;;;5016145;28;20657;-67
2022/08/12 12:19:07;;;;;;;1.30;1.30;;;;;;;;;;5008149;28;20228;-66
2022/08/12 12:21:33;;;;;;;1.30;1.30;;;;;;;;;;5019144;28;20215;-66
2022/08/12 12:23:59;;;;;;;1.30;1.30;;;;;;;;;;5017610;28;20306;-67
2022/08/12 12:26:25;;;;;;;1.30;1.30;;;;;;;;;;5012507;28;20310;-67
2022/08/12 12:28:51;;;;;;;1.20;1.20;;;;;;;;;;5019463;28;20217;-66
2022/08/12 12:31:17;;;;;;;0.90;0.90;;;;;;;;;;5005260;28;20596;-66
2022/08/12 12:33:43;;;;;;;0.90;0.90;;;;;;;;;;5019852;28;20614;-67
2022/08/12 12:36:09;;;;;;;0.90;0.90;;;;;;;;;;5017883;28;20212;-67
2022/08/12 12:38:35;;;;;;;0.85;0.85;;;;;;;;;;5020417;28;20271;-66
2022/08/12 12:41:01;;;;;;;0.90;0.90;;;;;;;;;;5013772;28;20852;-65
2022/08/12 12:43:27;;;;;;;0.90;0.90;;;;;;;;;;5007350;28;20190;-66
2022/08/12 12:45:53;;;;;;;0.85;0.85;;;;;;;;;;5016754;28;20307;-66
2022/08/12 12:48:20;;;;;;;0.85;0.85;;;;;;;;;;5021508;28;20235;-66
2022/08/12 12:51:35;;;;;;;0.80;0.80;;;;;;;;;;5004788;28;20217;-67
2022/08/12 12:53:37;;;;;;;0.90;0.90;;;;;;;;;;4980152;28;20235;-66
2022/08/12 12:56:03;;;;;;;0.80;0.80;;;;;;;;;;4998177;28;21277;-66
2022/08/12 12:58:29;;;;;;;0.80;0.80;;;;;;;;;;5005363;28;21056;-65
2022/08/12 13:00:58;;;;;;;0.98;0.98;;;;;;;;;;5018150;28;20219;-66
2022/08/12 13:03:24;;;;;;;0.90;0.90;;;;;;;;;;5009786;28;20783;-66
2022/08/12 13:05:51;;;;;;;1.20;1.20;;;;;;;;;;5012436;28;20232;-66
2022/08/12 13:08:26;;;;;;;1.33;1.33;;;;;;;;;;5005890;28;20304;-66
2022/08/12 13:10:52;;;;;;;1.30;1.30;;;;;;;;;;5014688;28;20299;-66
2022/08/12 13:13:19;;;;;;;1.35;1.35;;;;;;;;;;5000564;28;20251;-66
2022/08/12 13:15:48;;;;;;;1.40;1.40;;;;;;;;;;5019469;28;20225;-66
2022/08/12 13:18:14;;;;;;;1.27;1.27;;;;;;;;;;5016638;28;20646;-66
2022/08/12 13:20:42;;;;;;;1.40;1.40;;;;;;;;;;5015117;28;20211;-65
2022/08/12 13:23:08;;;;;;;1.60;1.60;;;;;;;;;;5026804;28;20228;-66
2022/08/12 13:25:35;;;;;;;1.30;1.30;;;;;;;;;;5020212;28;20669;-66
2022/08/12 13:28:02;;;;;;;1.30;1.30;;;;;;;;;;5024003;28;21355;-66
2022/08/12 13:30:28;;;;;;;1.38;1.38;;;;;;;;;;5013170;28;20231;-66
2022/08/12 13:32:57;;;;;;;1.10;1.10;;;;;;;;;;5015397;28;20232;-66
2022/08/12 13:35:23;;;;;;;1.20;1.20;;;;;;;;;;5006741;28;20223;-66
2022/08/12 13:37:52;;;;;;;1.20;1.20;;;;;;;;;;5005502;28;20737;-66
2022/08/12 13:40:21;;;;;;;1.20;1.20;;;;;;;;;;5020541;28;20326;-66
2022/08/12 13:42:47;;;;;;;1.80;1.70;;;;;;;;;;5011121;28;20262;-66
2022/08/12 13:45:14;;;;;;;1.30;1.30;;;;;;;;;;5008691;28;20573;-66
2022/08/12 13:48:00;;;;;;;1.35;1.35;;;;;;;;;;5017329;28;20224;-66
2022/08/12 13:50:32;;;;;;;1.60;1.60;;;;;;;;;;5034531;28;20240;-66
2022/08/12 13:53:00;;;;;;;1.73;1.67;;;;;;;;;;5009475;28;20262;-66
2022/08/12 13:55:26;;;;;;;1.60;1.60;;;;;;;;;;5012106;28;20572;-66
2022/08/12 13:57:52;;;;;;;1.60;1.60;;;;;;;;;;5016303;28;20221;-66
2022/08/12 14:00:18;;;;;;;1.50;1.50;;;;;;;;;;5009809;28;20212;-67
2022/08/12 14:02:44;;;;;;;1.50;1.50;;;;;;;;;;4994449;28;20583;-66
2022/08/12 14:05:10;;;;;;;1.42;1.42;;;;;;;;;;5001811;28;20217;-66
2022/08/12 14:07:52;;;;;;;1.40;1.40;;;;;;;;;;5009244;28;20206;-66
2022/08/12 14:13:08;;;;;;;1.58;1.58;;;;;;;;;;5024632;28;20641;-67
2022/08/12 14:15:34;;;;;;;1.48;1.48;;;;;;;;;;5008681;28;20224;-66
2022/08/12 14:18:13;;;;;;;1.50;1.50;;;;;;;;;;4991588;28;20223;-66
2022/08/12 14:20:39;;;;;;;1.40;1.40;;;;;;;;;;5013726;28;20294;-67
2022/08/12 14:23:05;;;;;;;1.50;1.50;;;;;;;;;;5002231;28;20297;-65
2022/08/12 14:25:31;;;;;;;1.50;1.50;;;;;;;;;;4995105;28;20697;-65
2022/08/12 14:28:10;;;;;;;1.60;1.60;;;;;;;;;;4998454;28;20260;-66
2022/08/12 14:30:36;;;;;;;1.50;1.50;;;;;;;;;;4992489;28;20339;-66
2022/08/12 14:33:04;;;;;;;1.60;1.60;;;;;;;;;;4984326;28;25676;-66
2022/08/12 14:35:30;;;;;;;1.50;1.50;;;;;;;;;;4990779;28;20794;-64
2022/08/12 14:37:56;;;;;;;1.60;1.60;;;;;;;;;;5000778;28;20562;-65
2022/08/12 14:40:22;;;;;;;1.50;1.50;;;;;;;;;;5007372;28;20307;-66
2022/08/12 14:42:48;;;;;;;1.55;1.55;;;;;;;;;;4998653;28;20994;-65
2022/08/12 14:45:14;;;;;;;1.50;1.50;;;;;;;;;;4992767;28;20228;-67
2022/08/12 14:47:48;;;;;;;1.50;1.50;;;;;;;;;;4983145;28;20228;-65
2022/08/12 14:50:16;;;;;;;1.60;1.60;;;;;;;;;;5013931;28;20223;-66
2022/08/12 14:52:42;;;;;;;1.50;1.50;;;;;;;;;;4990358;28;20286;-66
2022/08/12 14:55:09;;;;;;;1.50;1.50;;;;;;;;;;4988981;28;21163;-66
2022/08/12 14:57:49;;;;;;;1.52;1.52;;;;;;;;;;5004678;28;22146;-65
2022/08/12 15:03:02;;;;;;;1.45;1.45;;;;;;;;;;5003237;28;20234;-65
2022/08/12 15:05:33;;;;;;;1.50;1.50;;;;;;;;;;4996230;28;20221;-62
2022/08/12 15:07:59;;;;;;;1.48;1.48;;;;;;;;;;4999464;28;20220;-62
2022/08/12 15:10:25;;;;;;;1.40;1.40;;;;;;;;;;4994201;28;20275;-61
2022/08/12 15:12:51;;;;;;;1.50;1.50;;;;;;;;;;4994914;28;20286;-62
2022/08/12 15:15:18;;;;;;;1.50;1.50;;;;;;;;;;5007155;28;20217;-67
2022/08/12 15:17:44;;;;;;;1.50;1.50;;;;;;;;;;4999837;28;20457;-60
2022/08/12 15:20:10;;;;;;;1.60;1.60;;;;;;;;;;4986459;28;20513;-60
2022/08/12 15:22:37;;;;;;;1.75;1.65;;;;;;;;;;4994344;28;20228;-60
2022/08/12 15:25:04;;;;;;;1.73;1.63;;;;;;;;;;5006953;28;20235;-60
2022/08/12 15:27:30;;;;;;;1.40;1.40;;;;;;;;;;4997419;28;20443;-61
2022/08/12 15:29:56;;;;;;;1.50;1.50;;;;;;;;;;5014917;28;20472;-62
2022/08/12 15:32:22;;;;;;;1.27;1.27;;;;;;;;;;5002289;28;20929;-61
2022/08/12 15:34:48;;;;;;;1.10;1.10;;;;;;;;;;5006177;28;20431;-62
2022/08/12 15:37:14;;;;;;;1.10;1.10;;;;;;;;;;5015396;28;20600;-63
2022/08/12 15:39:40;;;;;;;1.20;1.20;;;;;;;;;;5003075;28;20530;-61
2022/08/12 15:42:07;;;;;;;1.10;1.10;;;;;;;;;;4996041;28;20551;-60
2022/08/12 15:44:33;;;;;;;1.20;1.20;;;;;;;;;;5001023;28;20432;-61
2022/08/12 15:46:59;;;;;;;1.20;1.20;;;;;;;;;;5013948;28;21227;-61
2022/08/12 15:49:25;;;;;;;1.20;1.20;;;;;;;;;;5006324;28;20428;-68
2022/08/12 15:51:51;;;;;;;1.20;1.20;;;;;;;;;;5007843;28;20454;-63
2022/08/12 15:54:18;;;;;;;1.20;1.20;;;;;;;;;;5003634;28;20438;-64
2022/08/12 15:56:44;;;;;;;1.10;1.10;;;;;;;;;;4998857;28;20435;-64
2022/08/12 15:59:12;;;;;;;1.20;1.20;;;;;;;;;;5010861;28;20444;-64
2022/08/12 16:01:40;;;;;;;1.10;1.10;;;;;;;;;;5001298;28;21187;-69
2022/08/12 16:04:07;;;;;;;1.20;1.20;;;;;;;;;;5005938;28;21470;-68
2022/08/12 16:06:33;;;;;;;1.10;1.10;;;;;;;;;;5004295;28;20257;-69
2022/08/12 16:08:59;;;;;;;1.48;1.48;;;;;;;;;;4992680;28;20220;-68
2022/08/12 16:11:25;;;;;;;0.90;0.90;;;;;;;;;;5007864;28;20508;-72
2022/08/12 16:13:52;;;;;;;0.80;0.80;;;;;;;;;;5007160;28;20220;-72
2022/08/12 16:16:18;;;;;;;0.80;0.80;;;;;;;;;;5014071;28;20228;-71
2022/08/12 16:18:44;;;;;;;0.70;0.70;;;;;;;;;;4996759;28;20221;-72
2022/08/12 16:21:10;;;;;;;0.90;0.90;;;;;;;;;;4991562;28;20252;-72
2022/08/12 16:23:36;;;;;;;0.80;0.80;;;;;;;;;;5020688;28;20686;-72
2022/08/12 16:26:03;;;;;;;0.80;0.80;;;;;;;;;;5004018;28;20236;-72
2022/08/12 16:28:30;;;;;;;0.90;0.90;;;;;;;;;;4990789;28;20229;-72
2022/08/12 16:30:56;;;;;;;0.80;0.80;;;;;;;;;;4991701;28;20320;-73
2022/08/12 16:33:22;;;;;;;0.80;0.80;;;;;;;;;;4995980;28;20789;-71
2022/08/12 16:35:51;;;;;;;0.80;0.80;;;;;;;;;;4994904;28;20225;-70
2022/08/12 16:38:23;;;;;;;0.82;0.82;;;;;;;;;;5004263;28;20233;-70